Time;durP1;ratioP1;P1;durP2;ratioP2;P2;SDS_P1;SDS_P2;PMS_P1;PMS_P2;Temp;Humidity;BMP_temperature;BMP_pressure;BME280_temperature;BME280_humidity;BME280_pressure;Samples;Min_cycle;Max_cycle;Signal;HPM_P1;HPM_P2
2022/01/16 00:04:11;;;;;;;;;53.25;45.75;;;;;1.94;67.18;101972.66;5037010;28;45393;-51
2022/01/16 00:06:38;;;;;;;;;52.75;44.50;;;;;2.12;66.73;102000.97;5036610;28;46388;-54
2022/01/16 00:09:04;;;;;;;;;46.20;43.40;;;;;1.99;66.60;101963.19;5034731;28;45639;-52
2022/01/16 00:11:30;;;;;;;;;51.75;43.00;;;;;1.99;66.52;101960.47;5018979;28;45429;-50
2022/01/16 00:13:55;;;;;;;;;50.75;43.00;;;;;2.07;66.74;101967.13;5035484;28;45371;-51
2022/01/16 00:16:21;;;;;;;;;53.25;43.25;;;;;2.19;66.86;101998.59;5036209;28;45477;-53
2022/01/16 00:18:49;;;;;;;;;67.25;47.75;;;;;2.20;67.20;101999.47;5035059;28;45346;-51
2022/01/16 00:21:17;;;;;;;;;53.50;43.50;;;;;2.18;66.43;102002.28;5035167;28;45466;-47
2022/01/16 00:23:43;;;;;;;;;61.25;44.75;;;;;1.94;66.25;101957.28;5034992;28;45450;-51
2022/01/16 00:26:08;;;;;;;;;46.50;39.25;;;;;2.10;66.41;101999.34;5034692;28;45490;-54
2022/01/16 00:28:34;;;;;;;;;50.25;42.00;;;;;1.93;66.92;101990.78;5036165;28;45308;-50
2022/01/16 00:30:59;;;;;;;;;51.00;40.50;;;;;1.96;66.47;102011.28;5018852;28;45381;-51
2022/01/16 00:33:25;;;;;;;;;44.75;38.75;;;;;2.10;66.36;102048.13;5036163;28;45315;-52
2022/01/16 00:35:50;;;;;;;;;44.50;27.00;;;;;1.99;65.67;102032.72;5018321;28;46142;-47
2022/01/16 00:38:16;;;;;;;;;49.50;43.00;;;;;1.83;65.86;102015.03;5018026;28;45361;-51
2022/01/16 00:40:41;;;;;;;;;46.50;40.25;;;;;1.97;65.95;102030.13;5002001;28;45441;-50
2022/01/16 00:43:07;;;;;;;;;33.25;27.75;;;;;1.85;65.93;101990.50;5017476;28;45434;-51
2022/01/16 00:45:35;;;;;;;;;53.50;44.00;;;;;1.54;65.96;101953.22;5035631;28;46549;-53
2022/01/16 00:48:04;;;;;;;;;60.60;45.60;;;;;1.79;66.18;101991.00;5035638;28;45381;-47
2022/01/16 00:50:30;;;;;;;;;52.25;44.25;;;;;1.90;66.30;102015.38;5017875;28;45747;-50
2022/01/16 00:52:56;;;;;;;;;43.75;39.25;;;;;1.90;66.13;102020.78;5018311;28;45658;-51
2022/01/16 00:55:21;;;;;;;;;51.75;43.50;;;;;1.93;66.46;102034.09;5035361;28;46637;-48
2022/01/16 00:57:47;;;;;;;;;57.75;44.25;;;;;1.66;66.61;102013.66;5018248;28;45406;-54
2022/01/16 01:00:13;;;;;;;;;49.75;44.75;;;;;1.73;66.42;102030.25;5001748;28;45378;-50
2022/01/16 01:02:38;;;;;;;;;55.75;47.75;;;;;1.73;66.48;102079.00;5017595;28;45594;-51
2022/01/16 01:05:04;;;;;;;;;61.50;46.00;;;;;1.62;66.47;102031.13;5017499;28;45572;-51
2022/01/16 01:07:30;;;;;;;;;47.00;38.25;;;;;1.72;66.13;102082.69;5035286;28;46024;-52
2022/01/16 01:09:55;;;;;;;;;42.50;39.00;;;;;1.69;66.80;102059.41;5011980;28;45548;-51
2022/01/16 01:12:28;;;;;;;;;50.25;37.75;;;;;1.70;66.43;102107.16;5010232;28;45546;-53
2022/01/16 01:15:10;;;;;;;;;50.50;44.50;;;;;1.60;66.92;102095.34;5018647;28;45809;-51
2022/01/16 01:17:44;;;;;;;;;50.60;43.60;;;;;1.60;66.84;102079.09;5018985;28;45342;-49
2022/01/16 01:20:12;;;;;;;;;44.80;40.00;;;;;1.41;67.07;102068.84;5018908;28;45381;-51
2022/01/16 01:22:37;;;;;;;;;48.75;40.50;;;;;1.39;67.56;102028.34;4984910;28;45575;-52
2022/01/16 01:25:03;;;;;;;;;53.00;40.75;;;;;1.30;67.67;101954.22;5035073;28;46320;-50
2022/01/16 01:27:33;;;;;;;;;50.50;41.25;;;;;1.49;66.76;101985.19;5017846;28;45528;-53
2022/01/16 01:30:03;;;;;;;;;50.40;37.20;;;;;1.59;67.22;101991.63;5035319;28;45325;-53
2022/01/16 01:32:31;;;;;;;;;60.75;44.25;;;;;1.64;67.39;101966.03;5002861;28;45405;-52
2022/01/16 01:34:56;;;;;;;;;45.75;41.50;;;;;1.40;66.75;101943.53;5017531;28;46897;-51
2022/01/16 01:37:22;;;;;;;;;58.25;43.00;;;;;1.46;67.49;101978.22;5017197;28;45480;-52
2022/01/16 01:39:47;;;;;;;;;45.00;39.75;;;;;1.52;67.13;101994.91;5001062;28;45388;-51
2022/01/16 01:42:14;;;;;;;;;57.00;44.75;;;;;1.82;66.72;102044.91;5018092;28;45464;-54
2022/01/16 01:52:54;;;;;;;;;49.00;35.50;;;;;1.85;66.97;102069.03;5006280;28;45389;-50
2022/01/16 01:55:19;;;;;;;;;39.00;30.25;;;;;1.60;67.22;102052.88;5034986;28;45471;-48
2022/01/16 01:57:45;;;;;;;;;54.25;40.75;;;;;1.86;67.18;102066.22;5017216;28;45358;-50
2022/01/16 02:00:17;;;;;;;;;63.50;49.75;;;;;1.92;67.32;102083.81;5035379;28;45355;-48
2022/01/16 02:05:30;;;;;;;;;52.00;40.75;;;;;1.90;67.27;102107.44;5019803;28;45722;-49
2022/01/16 02:07:56;;;;;;;;;55.50;41.50;;;;;1.83;67.50;102100.78;5034863;28;45222;-51
2022/01/16 02:10:22;;;;;;;;;51.00;43.75;;;;;1.91;67.41;102121.84;5017117;28;45680;-50
2022/01/16 02:12:54;;;;;;;;;59.50;45.00;;;;;1.95;67.40;102126.03;5017612;28;45650;-50
2022/01/16 02:32:24;;;;;;;;;70.00;49.25;;;;;1.88;67.72;102136.50;5018310;28;45417;-51
2022/01/16 02:34:45;;;;;;;;;41.25;38.25;;;;;1.92;68.44;102126.28;5020977;28;45385;-53
2022/01/16 02:37:13;;;;;;;;;66.75;49.75;;;;;1.92;67.70;102115.44;5033992;28;45735;-50
2022/01/16 02:39:45;;;;;;;;;65.80;46.00;;;;;1.92;67.73;102116.28;5017031;28;45461;-52
2022/01/16 02:42:12;;;;;;;;;66.50;50.00;;;;;1.92;67.84;102094.63;5017450;28;45360;-54
2022/01/16 02:44:45;;;;;;;;;64.50;48.50;;;;;1.73;68.33;102057.34;5016873;28;45419;-48
2022/01/16 02:47:13;;;;;;;;;67.25;49.75;;;;;1.78;67.69;102065.09;5017503;28;46577;-54
2022/01/16 02:49:40;;;;;;;;;61.25;50.00;;;;;1.75;67.76;102042.69;5002895;28;45666;-48
2022/01/16 02:52:08;;;;;;;;;60.00;47.50;;;;;1.92;67.82;102096.50;5003957;28;45488;-50
2022/01/16 02:54:36;;;;;;;;;64.00;48.50;;;;;1.90;68.23;102085.78;5003186;28;45539;-50
2022/01/16 02:57:03;;;;;;;;;56.25;41.50;;;;;1.82;68.01;102053.03;5020120;28;45717;-51
2022/01/16 02:59:29;;;;;;;;;65.75;52.50;;;;;1.83;67.42;102047.50;4962246;28;45933;-49
2022/01/16 03:01:54;;;;;;;;;69.75;49.75;;;;;2.11;68.35;102076.91;5037656;28;45370;-51
2022/01/16 03:04:20;;;;;;;;;67.75;51.75;;;;;1.88;68.11;102034.44;5037895;28;45464;-53
2022/01/16 03:06:46;;;;;;;;;65.75;47.75;;;;;2.16;67.65;102074.72;5037378;28;46442;-49
2022/01/16 03:09:12;;;;;;;;;63.75;50.75;;;;;2.15;67.64;102063.00;5003079;28;45465;-49
2022/01/16 03:11:42;;;;;;;;;56.50;47.00;;;;;2.07;67.69;102038.38;5019278;28;45325;-48
2022/01/16 03:14:09;;;;;;;;;53.50;43.50;;;;;1.96;67.83;102035.66;5003663;28;45616;-48
2022/01/16 03:16:35;;;;;;;;;60.50;46.50;;;;;2.07;67.68;102059.22;5018828;28;45654;-50
2022/01/16 03:21:54;;;;;;;;;78.00;54.00;;;;;2.14;68.16;102064.00;5021937;28;45343;-49
2022/01/16 03:24:34;;;;;;;;;66.75;47.00;;;;;2.07;67.77;102065.47;5005819;28;45475;-52
2022/01/16 03:27:04;;;;;;;;;71.00;48.25;;;;;2.06;67.98;102046.63;5037425;28;46065;-52
2022/01/16 03:29:29;;;;;;;;;50.75;43.00;;;;;2.10;67.85;102054.41;5019586;28;45509;-49
2022/01/16 03:31:55;;;;;;;;;65.50;48.00;;;;;2.09;67.98;102062.66;5037506;28;45457;-49
2022/01/16 03:34:21;;;;;;;;;64.25;48.25;;;;;2.13;67.83;102069.56;5003272;28;45355;-54
2022/01/16 03:36:46;;;;;;;;;57.50;49.00;;;;;2.07;67.67;102054.63;5019346;28;46539;-49
2022/01/16 03:39:12;;;;;;;;;58.50;46.00;;;;;2.08;67.83;102067.19;5019336;28;45414;-51
2022/01/16 03:41:37;;;;;;;;;70.00;52.75;;;;;2.12;67.75;102081.34;5002591;28;45293;-50
2022/01/16 03:44:04;;;;;;;;;75.25;53.25;;;;;2.11;68.35;102090.47;5019972;28;45670;-51
2022/01/16 03:46:34;;;;;;;;;68.75;54.75;;;;;2.05;68.42;102067.44;5019213;28;45663;-48
2022/01/16 03:49:01;;;;;;;;;69.50;52.00;;;;;2.14;68.06;102065.84;5003691;28;45526;-53
2022/01/16 03:51:27;;;;;;;;;64.00;47.00;;;;;1.91;67.97;102040.63;5019493;28;45402;-50
2022/01/16 03:53:52;;;;;;;;;55.75;46.50;;;;;1.91;68.37;102057.72;5037083;28;45556;-52
2022/01/16 03:56:18;;;;;;;;;61.75;48.25;;;;;1.91;68.62;102063.13;5019159;28;45962;-49
2022/01/16 03:58:43;;;;;;;;;72.00;52.00;;;;;1.94;69.14;102076.44;5037069;28;45462;-53
2022/01/16 04:01:09;;;;;;;;;64.25;52.25;;;;;1.96;68.64;102066.34;5036863;28;45422;-50
2022/01/16 04:03:34;;;;;;;;;65.75;49.75;;;;;1.92;68.32;102050.47;5036914;28;45502;-49
2022/01/16 04:06:01;;;;;;;;;65.25;52.50;;;;;2.10;68.38;102086.91;5036623;28;45860;-50
2022/01/16 04:08:27;;;;;;;;;57.00;46.25;;;;;1.92;68.16;102048.59;5036951;28;45480;-49
2022/01/16 04:10:52;;;;;;;;;63.00;46.50;;;;;2.11;68.19;102085.03;5036561;28;45382;-49
2022/01/16 04:13:20;;;;;;;;;57.50;47.00;;;;;2.10;68.22;102096.88;5002520;28;45432;-51
2022/01/16 04:15:45;;;;;;;;;65.50;50.75;;;;;2.15;67.88;102091.94;5002360;28;47117;-49
2022/01/16 04:18:11;;;;;;;;;56.50;43.25;;;;;1.98;67.88;102067.06;5018317;28;45469;-50
2022/01/16 04:20:36;;;;;;;;;53.00;41.00;;;;;2.07;67.78;102110.69;5036988;28;45388;-51
2022/01/16 04:23:03;;;;;;;;;59.75;45.25;;;;;1.91;68.20;102087.50;5036634;28;45588;-51
2022/01/16 04:25:28;;;;;;;;;61.25;49.25;;;;;1.87;67.77;102081.47;5001777;28;46786;-51
2022/01/16 04:27:54;;;;;;;;;54.25;44.00;;;;;1.84;68.12;102080.84;5035738;28;45612;-49
2022/01/16 04:30:19;;;;;;;;;56.75;43.25;;;;;2.09;68.08;102130.38;5036564;28;45310;-51
2022/01/16 04:32:45;;;;;;;;;63.75;46.75;;;;;2.07;68.38;102135.06;5018917;28;45253;-50
2022/01/16 04:35:11;;;;;;;;;59.75;46.00;;;;;2.05;67.76;102135.16;5035985;28;45462;-52
2022/01/16 04:37:36;;;;;;;;;67.25;47.50;;;;;1.93;68.49;102126.19;5018132;28;45282;-50
2022/01/16 04:40:03;;;;;;;;;68.75;48.00;;;;;1.92;69.20;102148.78;5035981;28;45149;-51
2022/01/16 04:45:13;;;;;;;;;55.25;43.25;;;;;1.85;69.22;102142.13;5020520;28;45242;-52
2022/01/16 04:47:38;;;;;;;;;65.50;51.50;;;;;1.90;69.29;102134.53;5035803;28;45390;-49
2022/01/16 04:50:04;;;;;;;;;53.00;42.50;;;;;1.86;69.14;102133.91;5035998;28;45302;-50
2022/01/16 04:52:30;;;;;;;;;64.50;48.75;;;;;1.90;69.46;102142.66;5001713;28;45378;-53
2022/01/16 04:54:55;;;;;;;;;58.50;45.50;;;;;1.95;69.52;102124.19;5000330;28;47915;-54
2022/01/16 04:57:21;;;;;;;;;61.50;47.00;;;;;1.79;69.89;102102.88;5035613;28;45424;-50
2022/01/16 04:59:46;;;;;;;;;68.75;48.25;;;;;1.96;69.48;102133.16;5035928;28;45460;-49
2022/01/16 05:02:11;;;;;;;;;60.50;51.50;;;;;1.98;68.82;102145.59;5035382;28;45575;-51
2022/01/16 05:04:38;;;;;;;;;57.25;47.25;;;;;1.73;69.13;102100.66;5035393;28;46029;-53
2022/01/16 05:07:04;;;;;;;;;56.25;41.25;;;;;1.98;69.65;102142.06;5035595;28;45523;-54
2022/01/16 05:09:29;;;;;;;;;56.75;46.25;;;;;1.87;69.35;102151.88;5017464;28;45454;-50
2022/01/16 05:11:57;;;;;;;;;59.25;46.25;;;;;1.84;70.13;102148.53;5033689;28;45395;-50
2022/01/16 05:17:07;;;;;;;;;53.00;43.60;;;;;1.73;70.48;102166.50;5020438;28;45402;-51
2022/01/16 05:19:32;;;;;;;;;55.75;43.75;;;;;1.79;70.52;102164.28;5035320;28;45424;-49
2022/01/16 05:21:57;;;;;;;;;53.00;44.75;;;;;1.85;70.31;102170.09;5035889;28;45226;-50
2022/01/16 05:24:28;;;;;;;;;55.50;45.50;;;;;1.81;70.45;102151.50;5034889;28;46208;-54
2022/01/16 05:26:53;;;;;;;;;58.40;41.20;;;;;1.76;70.52;102160.81;5017963;28;45436;-51
2022/01/16 05:29:18;;;;;;;;;47.50;43.25;;;;;1.66;71.00;102140.88;5035181;28;45377;-49
2022/01/16 05:31:47;;;;;;;;;26.50;22.75;;;;;1.66;71.08;102146.31;5017844;28;45630;-54
2022/01/16 05:34:18;;;;;;;;;35.20;32.40;;;;;1.80;70.80;102190.38;5017853;28;46817;-51
2022/01/16 05:36:44;;;;;;;;;48.40;38.40;;;;;1.74;71.13;102195.28;4998568;28;45766;-49
2022/01/16 05:39:10;;;;;;;;;45.00;37.00;;;;;1.66;71.26;102194.16;5014350;28;45943;-51
2022/01/16 05:41:35;;;;;;;;;49.00;38.25;;;;;1.69;71.80;102199.31;5016389;28;45422;-50
2022/01/16 05:44:00;;;;;;;;;47.75;36.25;;;;;1.65;71.83;102208.66;5033834;28;46183;-51
2022/01/16 05:46:26;;;;;;;;;52.75;38.50;;;;;1.66;72.21;102192.31;5034677;28;45397;-53
2022/01/16 05:48:51;;;;;;;;;63.25;42.50;;;;;1.67;72.26;102176.91;5031755;28;45381;-49
2022/01/16 05:51:17;;;;;;;;;44.25;34.75;;;;;1.58;72.04;102154.13;5016340;28;45280;-49
2022/01/16 05:53:44;;;;;;;;;43.50;37.75;;;;;1.81;71.96;102182.13;5028115;28;46465;-50
2022/01/16 05:56:11;;;;;;;;;42.40;32.20;;;;;1.77;72.01;102191.50;5034722;28;45478;-50
2022/01/16 05:58:37;;;;;;;;;47.60;34.40;;;;;1.78;72.60;102198.63;5035107;28;45359;-50
2022/01/16 06:01:02;;;;;;;;;41.25;30.25;;;;;1.47;72.60;102155.81;5035374;28;45382;-50
2022/01/16 06:03:27;;;;;;;;;39.75;37.50;;;;;1.72;71.74;102185.56;5000654;28;45875;-48
2022/01/16 06:05:53;;;;;;;;;41.50;31.00;;;;;1.71;72.00;102181.97;5034713;28;45387;-48
2022/01/16 06:08:18;;;;;;;;;34.00;29.25;;;;;1.62;72.01;102163.75;5017219;28;45454;-49
2022/01/16 06:10:44;;;;;;;;;40.50;34.50;;;;;1.78;71.60;102186.91;5017541;28;45566;-50
2022/01/16 06:13:09;;;;;;;;;38.00;34.00;;;;;1.68;71.58;102190.34;5016731;28;45615;-50
2022/01/16 06:15:35;;;;;;;;;44.50;36.00;;;;;1.68;71.88;102224.66;5034405;28;45355;-48
2022/01/16 06:18:01;;;;;;;;;49.75;35.25;;;;;1.75;72.21;102218.66;5000754;28;45268;-48
2022/01/16 06:20:27;;;;;;;;;30.75;29.25;;;;;1.80;71.68;102217.47;5017155;28;45341;-48
2022/01/16 06:22:55;;;;;;;;;28.80;19.60;;;;;1.79;71.67;102211.19;5016427;28;46812;-52
2022/01/16 06:25:22;;;;;;;;;41.40;33.80;;;;;1.77;71.68;102213.16;5020672;28;45395;-50
2022/01/16 06:27:48;;;;;;;;;33.20;20.40;;;;;1.47;71.75;102174.78;5020532;28;45502;-53
2022/01/16 06:30:13;;;;;;;;;52.25;37.00;;;;;1.81;72.07;102239.00;5038385;28;45621;-49
2022/01/16 06:32:39;;;;;;;;;41.25;35.50;;;;;1.80;71.89;102231.84;5020282;28;47014;-50
2022/01/16 06:35:05;;;;;;;;;44.00;30.50;;;;;1.79;72.29;102231.97;5004179;28;45368;-54
2022/01/16 06:37:31;;;;;;;;;34.20;33.40;;;;;1.83;72.43;102236.16;5009373;28;45439;-49
2022/01/16 06:39:56;;;;;;;;;29.00;23.50;;;;;1.64;72.51;102194.25;5018228;28;45595;-50
2022/01/16 06:42:22;;;;;;;;;39.25;26.00;;;;;1.29;72.04;102131.00;5034795;28;46625;-53
2022/01/16 06:44:47;;;;;;;;;30.00;25.75;;;;;1.83;71.87;102209.97;5020050;28;45439;-51
2022/01/16 06:47:13;;;;;;;;;32.00;26.50;;;;;1.97;72.21;102224.28;5037876;28;45363;-50
2022/01/16 06:49:38;;;;;;;;;31.25;26.00;;;;;1.70;72.09;102187.53;5038661;28;45472;-50
2022/01/16 06:52:04;;;;;;;;;26.75;22.50;;;;;1.74;71.98;102197.13;5019915;28;45493;-48
2022/01/16 06:54:30;;;;;;;;;26.75;23.75;;;;;1.82;72.24;102201.97;5037958;28;45437;-49
2022/01/16 06:56:55;;;;;;;;;32.50;26.00;;;;;1.91;72.15;102228.31;5019700;28;45404;-51
2022/01/16 06:59:21;;;;;;;;;25.50;23.00;;;;;1.79;72.31;102202.19;5004222;28;45601;-48
2022/01/16 07:01:46;;;;;;;;;33.50;29.50;;;;;1.98;72.44;102253.94;5019968;28;47858;-48
2022/01/16 07:04:12;;;;;;;;;31.25;27.25;;;;;1.94;72.93;102249.75;5037277;28;45390;-49
2022/01/16 07:06:37;;;;;;;;;31.25;28.25;;;;;2.01;72.49;102266.38;5038051;28;45373;-51
2022/01/16 07:09:03;;;;;;;;;22.50;19.25;;;;;2.00;72.58;102270.97;5037596;28;45392;-51
2022/01/16 07:11:29;;;;;;;;;28.25;22.50;;;;;2.06;72.23;102285.00;5037592;28;46451;-48
2022/01/16 07:13:54;;;;;;;;;31.25;26.50;;;;;2.07;72.37;102282.16;5037854;28;45300;-48
2022/01/16 07:16:19;;;;;;;;;25.50;18.00;;;;;2.06;72.36;102295.81;5037726;28;45278;-50
2022/01/16 07:18:45;;;;;;;;;40.75;26.75;;;;;2.03;73.10;102286.97;5003481;28;45636;-49
2022/01/16 07:21:13;;;;;;;;;35.25;28.75;;;;;1.97;72.78;102271.19;5037307;28;45607;-54
2022/01/16 07:23:45;;;;;;;;;30.00;23.60;;;;;2.01;72.75;102269.09;5037370;28;45274;-51
2022/01/16 07:26:12;;;;;;;;;30.20;25.60;;;;;2.06;72.70;102275.03;5019579;28;45353;-48
2022/01/16 07:28:37;;;;;;;;;24.60;22.20;;;;;1.95;72.68;102259.59;5020019;28;45326;-53
2022/01/16 07:31:03;;;;;;;;;37.50;27.00;;;;;2.08;73.05;102269.50;5037305;28;46618;-55
2022/01/16 07:33:29;;;;;;;;;37.00;24.00;;;;;2.02;73.09;102258.16;5002849;28;45446;-52
2022/01/16 07:35:55;;;;;;;;;26.75;21.50;;;;;2.06;73.13;102269.59;5036917;28;45255;-54
2022/01/16 07:38:20;;;;;;;;;20.75;15.00;;;;;2.11;72.78;102283.66;5011752;28;45550;-50
2022/01/16 07:40:46;;;;;;;;;23.25;20.00;;;;;2.14;72.74;102301.53;5018304;28;45830;-51
2022/01/16 07:43:13;;;;;;;;;32.25;25.50;;;;;2.14;73.18;102302.38;5036036;28;45366;-53
2022/01/16 07:45:38;;;;;;;;;28.60;23.20;;;;;2.13;73.14;102307.94;5019610;28;45406;-51
2022/01/16 07:48:06;;;;;;;;;27.50;23.00;;;;;2.16;72.79;102302.28;5019577;28;45315;-49
2022/01/16 07:50:32;;;;;;;;;32.40;29.20;;;;;2.17;73.37;102304.00;5002835;28;45835;-49
2022/01/16 07:52:58;;;;;;;;;26.25;24.25;;;;;2.21;72.76;102304.63;5019081;28;45323;-50
2022/01/16 07:55:26;;;;;;;;;21.20;13.60;;;;;2.11;73.59;102290.91;5036779;28;45289;-53
2022/01/16 07:57:52;;;;;;;;;28.00;24.40;;;;;2.21;73.20;102304.63;5036950;28;45441;-53
2022/01/16 08:00:18;;;;;;;;;35.20;26.20;;;;;1.95;73.42;102250.59;5019220;28;46110;-56
2022/01/16 08:02:44;;;;;;;;;24.00;19.00;;;;;2.17;73.27;102285.91;5018943;28;45433;-51
2022/01/16 08:05:10;;;;;;;;;37.75;28.00;;;;;2.01;73.32;102242.00;5037006;28;45754;-50
2022/01/16 08:07:35;;;;;;;;;35.00;27.00;;;;;2.24;73.51;102278.16;5019142;28;45411;-53
2022/01/16 08:10:01;;;;;;;;;35.00;30.75;;;;;2.26;73.72;102284.34;5002903;28;45606;-54
2022/01/16 08:12:26;;;;;;;;;33.25;22.50;;;;;2.25;73.39;102284.44;5036585;28;45207;-52
2022/01/16 08:14:51;;;;;;;;;36.75;29.75;;;;;2.29;73.06;102297.63;5036686;28;45243;-49
2022/01/16 08:17:17;;;;;;;;;42.25;28.75;;;;;2.32;73.53;102292.94;5019254;28;45730;-51
2022/01/16 08:19:42;;;;;;;;;23.50;18.25;;;;;2.24;73.21;102283.56;5036557;28;46456;-49
2022/01/16 08:22:10;;;;;;;;;38.25;31.25;;;;;2.40;73.32;102309.50;5036772;28;45268;-50
2022/01/16 08:24:36;;;;;;;;;30.80;26.80;;;;;2.36;72.80;102302.56;5014849;28;45438;-51
2022/01/16 08:27:01;;;;;;;;;33.75;26.75;;;;;2.16;73.09;102275.19;4998601;28;45483;-48
2022/01/16 08:29:27;;;;;;;;;31.00;23.50;;;;;2.15;73.48;102278.88;4988009;28;45480;-54
2022/01/16 08:31:52;;;;;;;;;39.50;26.50;;;;;2.33;73.76;102313.69;4994949;28;45440;-49
2022/01/16 08:34:18;;;;;;;;;41.25;27.00;;;;;2.15;73.32;102273.47;4996436;28;45411;-53
2022/01/16 08:36:43;;;;;;;;;41.75;34.00;;;;;2.39;73.43;102307.75;4973469;28;45494;-53
2022/01/16 08:39:09;;;;;;;;;30.25;25.75;;;;;2.34;73.90;102304.56;4993505;28;46037;-54
2022/01/16 08:41:37;;;;;;;;;35.25;29.50;;;;;2.39;73.49;102305.03;4991676;28;45464;-49
2022/01/16 08:44:04;;;;;;;;;34.00;33.20;;;;;2.17;73.43;102261.53;4996154;28;45322;-51
2022/01/16 08:46:29;;;;;;;;;31.00;25.20;;;;;2.35;73.81;102290.03;4995405;28;45501;-49
2022/01/16 08:48:55;;;;;;;;;28.25;22.75;;;;;2.27;73.66;102294.19;4995837;28;45817;-50
2022/01/16 08:51:21;;;;;;;;;34.00;26.00;;;;;2.51;73.23;102314.09;4996544;28;45872;-51
2022/01/16 08:53:46;;;;;;;;;39.00;30.40;;;;;2.32;73.32;102273.97;4994786;28;45510;-50
2022/01/16 08:56:15;;;;;;;;;26.00;21.25;;;;;2.61;73.19;102317.78;4994714;28;45696;-49
2022/01/16 08:58:40;;;;;;;;;30.20;25.20;;;;;2.44;72.98;102281.16;4994310;28;45792;-52
2022/01/16 09:01:06;;;;;;;;;34.50;26.50;;;;;2.72;72.88;102319.63;4995662;28;45277;-51
2022/01/16 09:03:31;;;;;;;;;27.75;23.25;;;;;2.80;72.75;102324.47;4994362;28;45379;-49
2022/01/16 09:05:57;;;;;;;;;41.25;29.50;;;;;2.62;72.54;102291.53;4995739;28;45335;-51
2022/01/16 09:08:22;;;;;;;;;34.25;26.00;;;;;2.91;72.49;102339.88;4978397;28;46793;-48
2022/01/16 09:10:48;;;;;;;;;39.50;33.50;;;;;2.86;72.85;102337.53;4994495;28;45291;-53
2022/01/16 09:13:16;;;;;;;;;29.75;24.00;;;;;2.85;72.18;102331.25;4994650;28;45339;-52
2022/01/16 09:15:47;;;;;;;;;33.40;28.20;;;;;2.96;72.44;102353.94;4996009;28;45500;-51
2022/01/16 09:18:13;;;;;;;;;34.40;28.40;;;;;2.93;72.13;102348.78;4994551;28;46042;-53
2022/01/16 09:20:38;;;;;;;;;33.00;23.50;;;;;2.98;72.15;102347.41;4995754;28;45396;-54
2022/01/16 09:23:04;;;;;;;;;33.00;26.00;;;;;3.01;72.10;102345.44;4995749;28;45410;-53
2022/01/16 09:25:29;;;;;;;;;30.75;25.00;;;;;3.04;71.70;102351.47;5033951;28;45422;-52
2022/01/16 09:27:55;;;;;;;;;36.25;27.25;;;;;2.98;71.85;102349.25;5035356;28;45499;-52
2022/01/16 09:30:23;;;;;;;;;36.25;28.25;;;;;2.93;72.27;102351.50;4990746;27;45394;-53
2022/01/16 09:32:49;;;;;;;;;38.80;31.00;;;;;2.77;71.68;102311.16;5010845;28;45390;-50
2022/01/16 09:35:14;;;;;;;;;35.25;29.25;;;;;2.82;71.76;102326.06;5017891;28;45464;-52
2022/01/16 09:37:40;;;;;;;;;30.75;27.50;;;;;3.10;71.83;102358.28;4994395;28;46179;-52
2022/01/16 09:40:07;;;;;;;;;27.25;24.00;;;;;3.09;71.59;102354.69;5015924;28;45334;-51
2022/01/16 09:42:32;;;;;;;;;25.40;20.40;;;;;3.01;71.74;102335.47;5035686;28;45247;-49
2022/01/16 09:44:58;;;;;;;;;23.75;21.25;;;;;3.23;70.97;102367.16;5001098;28;45373;-52
2022/01/16 09:47:23;;;;;;;;;22.00;18.25;;;;;3.36;70.68;102374.31;5001250;28;46590;-56
2022/01/16 09:49:49;;;;;;;;;29.50;20.50;;;;;3.32;70.52;102361.97;5017261;28;45334;-52
2022/01/16 09:52:14;;;;;;;;;21.75;18.00;;;;;3.34;70.44;102363.59;5017448;28;45443;-54
2022/01/16 09:54:40;;;;;;;;;27.00;22.00;;;;;3.09;70.03;102330.28;5035836;28;45713;-52
2022/01/16 09:57:06;;;;;;;;;27.25;17.50;;;;;3.06;70.48;102338.69;5034926;28;46370;-48
2022/01/16 09:59:31;;;;;;;;;24.25;18.50;;;;;3.20;70.67;102366.56;5003994;28;45481;-48
2022/01/16 10:01:57;;;;;;;;;24.50;20.25;;;;;3.23;70.72;102369.00;5039177;28;45850;-48
2022/01/16 10:04:42;;;;;;;;;26.50;21.00;;;;;3.27;70.79;102364.19;5020985;28;45349;-54
2022/01/16 10:07:15;;;;;;;;;21.60;19.60;;;;;3.43;70.15;102364.69;5020706;28;46098;-49
2022/01/16 10:09:42;;;;;;;;;24.40;17.80;;;;;3.53;70.31;102353.94;5038715;28;45508;-51
2022/01/16 10:12:16;;;;;;;;;20.40;16.40;;;;;3.68;70.17;102359.94;5020992;28;45374;-50
2022/01/16 10:14:47;;;;;;;;;18.00;13.20;;;;;3.79;69.10;102354.50;5022557;28;45481;-48
2022/01/16 10:17:13;;;;;;;;;22.20;20.20;;;;;3.65;69.22;102327.63;5020907;28;45867;-53
2022/01/16 10:19:39;;;;;;;;;28.20;19.00;;;;;3.88;68.81;102366.47;5036040;28;45329;-56
2022/01/16 10:22:09;;;;;;;;;27.00;20.50;;;;;3.89;69.23;102357.31;4975547;28;45706;-52
2022/01/16 10:24:34;;;;;;;;;20.80;18.00;;;;;3.90;69.11;102358.19;5011612;28;45512;-50
2022/01/16 10:27:10;;;;;;;;;15.00;14.00;;;;;3.77;69.11;102336.59;4996922;28;46645;-54
2022/01/16 10:29:41;;;;;;;;;22.20;17.80;;;;;3.95;69.13;102361.34;5036883;28;45484;-54
2022/01/16 10:32:26;;;;;;;;;24.60;18.60;;;;;3.80;68.82;102382.53;5016107;28;45494;-54
2022/01/16 10:35:22;;;;;;;;;23.40;19.40;;;;;3.78;69.52;102373.63;5014447;28;45851;-53
2022/01/16 10:37:52;;;;;;;;;24.00;21.60;;;;;3.79;69.32;102362.66;4987593;28;46440;-53
2022/01/16 10:40:20;;;;;;;;;21.80;16.20;;;;;3.88;68.96;102366.47;4998175;28;45430;-53
2022/01/16 10:42:57;;;;;;;;;20.60;18.20;;;;;3.47;69.47;102286.56;4999873;28;45562;-56
2022/01/16 10:45:24;;;;;;;;;26.80;22.60;;;;;3.82;68.77;102358.81;4998461;28;45579;-60
2022/01/16 10:47:54;;;;;;;;;33.20;21.80;;;;;3.80;69.64;102364.38;4982670;28;46076;-56
2022/01/16 10:50:22;;;;;;;;;20.40;20.40;;;;;3.87;69.95;102378.31;4983702;28;45881;-54
2022/01/16 10:52:51;;;;;;;;;19.40;17.60;;;;;3.85;69.48;102369.41;5032567;28;45495;-53
2022/01/16 10:55:17;;;;;;;;;19.20;19.20;;;;;3.83;70.21;102368.69;5033437;28;45634;-51
2022/01/16 10:57:43;;;;;;;;;21.25;15.00;;;;;3.83;70.18;102367.84;5032078;28;46450;-51
2022/01/16 11:00:15;;;;;;;;;23.75;21.75;;;;;3.96;69.14;102365.81;5033786;28;45438;-52
2022/01/16 11:02:42;;;;;;;;;21.60;18.40;;;;;3.97;69.22;102359.41;5032568;28;45461;-54
2022/01/16 11:05:10;;;;;;;;;23.20;23.20;;;;;3.96;69.59;102359.53;5016030;28;45469;-55
2022/01/16 11:07:35;;;;;;;;;18.00;17.40;;;;;3.92;69.93;102365.22;5015277;28;45782;-53
2022/01/16 11:10:26;;;;;;;;;22.25;19.00;;;;;3.90;69.26;102348.16;5032846;28;45556;-53
2022/01/16 11:12:52;;;;;;;;;27.60;20.80;;;;;4.12;69.21;102359.97;5018836;28;45465;-52
2022/01/16 11:15:18;;;;;;;;;25.20;21.40;;;;;4.07;69.72;102354.91;5032753;28;45537;-55
2022/01/16 11:17:44;;;;;;;;;18.50;17.75;;;;;4.06;69.16;102352.34;5033308;28;46685;-54
2022/01/16 11:20:09;;;;;;;;;25.00;21.00;;;;;4.03;69.99;102350.72;5023814;28;45579;-52
2022/01/16 11:22:55;;;;;;;;;29.75;24.00;;;;;4.01;70.40;102363.56;5033394;28;45373;-55
2022/01/16 11:25:30;;;;;;;;;25.40;22.20;;;;;4.04;69.96;102365.16;5018112;28;45923;-52
2022/01/16 11:27:57;;;;;;;;;27.40;21.00;;;;;4.09;69.65;102364.78;5014925;28;46560;-53
2022/01/16 11:30:22;;;;;;;;;28.80;19.60;;;;;4.04;69.70;102355.19;4998590;28;45442;-52
2022/01/16 11:32:47;;;;;;;;;23.25;21.00;;;;;4.05;70.58;102358.72;5014913;28;45751;-54
2022/01/16 11:35:13;;;;;;;;;28.25;21.75;;;;;4.13;69.57;102360.81;5015188;28;45429;-55
2022/01/16 11:37:38;;;;;;;;;28.75;24.00;;;;;4.17;70.30;102373.16;4970932;28;46770;-56
2022/01/16 11:40:35;;;;;;;;;25.50;23.00;;;;;4.16;70.15;102361.41;4996967;28;45427;-56
2022/01/16 11:43:34;;;;;;;;;21.60;19.20;;;;;4.16;70.86;102361.41;5001213;28;45897;-58
2022/01/16 11:46:04;;;;;;;;;26.00;24.60;;;;;4.20;69.79;102368.34;5014890;28;45556;-61
2022/01/16 11:48:34;;;;;;;;;22.40;20.40;;;;;3.99;69.68;102340.25;5014593;28;46564;-53
2022/01/16 11:51:01;;;;;;;;;21.80;15.80;;;;;4.22;70.40;102372.78;5014741;28;45399;-57
2022/01/16 11:53:58;;;;;;;;;28.80;19.40;;;;;4.24;70.25;102378.94;5013298;28;45810;-56
2022/01/16 11:56:40;;;;;;;;;24.80;20.60;;;;;4.29;70.11;102374.84;5032795;28;45551;-55